Time;durP1;ratioP1;P1;durP2;ratioP2;P2;SDS_P1;SDS_P2;PMS_P1;PMS_P2;Temp;Humidity;BMP_temperature;BMP_pressure;BME280_temperature;BME280_humidity;BME280_pressure;Samples;Min_cycle;Max_cycle;Signal;HPM_P1;HPM_P2
2021/04/08 00:00:08;;;;;;;1999.90;999.90;;;16.70;97.60;;;;;;5032097;28;20533;-43
2021/04/08 00:02:35;;;;;;;1999.90;999.90;;;16.70;97.90;;;;;;5031942;28;20170;-43
2021/04/08 00:05:01;;;;;;;1999.90;999.90;;;16.70;97.80;;;;;;5032027;28;20166;-43
2021/04/08 00:07:28;;;;;;;1999.90;999.90;;;16.70;98.00;;;;;;5032030;28;20166;-43
2021/04/08 00:09:55;;;;;;;1999.90;999.90;;;16.70;98.10;;;;;;5030685;28;20610;-43
2021/04/08 00:12:22;;;;;;;1999.90;999.90;;;16.60;98.30;;;;;;5032035;28;20166;-43
2021/04/08 00:14:49;;;;;;;1999.90;999.90;;;16.60;98.10;;;;;;5031864;28;20201;-43
2021/04/08 00:17:15;;;;;;;1999.90;999.90;;;16.50;97.60;;;;;;5031893;28;20640;-43
2021/04/08 00:19:42;;;;;;;1999.90;999.90;;;16.40;97.80;;;;;;5031231;28;20253;-43
2021/04/08 00:22:09;;;;;;;1999.90;999.90;;;16.40;97.90;;;;;;5031758;28;20230;-44
2021/04/08 00:24:36;;;;;;;1999.90;999.90;;;16.30;97.90;;;;;;5031746;28;20178;-43
2021/04/08 00:27:03;;;;;;;1999.90;999.90;;;16.30;97.90;;;;;;5031685;28;20166;-43
2021/04/08 00:29:34;;;;;;;1999.90;999.90;;;16.30;98.20;;;;;;5031599;28;20197;-53
2021/04/08 00:32:01;;;;;;;1999.90;999.90;;;16.20;98.20;;;;;;5031755;28;20515;-43
2021/04/08 00:34:28;;;;;;;1999.90;999.90;;;16.10;98.30;;;;;;5031691;28;20699;-44
2021/04/08 00:36:55;;;;;;;1999.90;999.90;;;16.10;98.60;;;;;;5031679;28;20170;-42
2021/04/08 00:39:21;;;;;;;1999.90;999.90;;;16.00;99.00;;;;;;5031485;28;20174;-43
2021/04/08 00:41:49;;;;;;;1999.90;999.90;;;15.90;99.40;;;;;;5031479;28;20705;-43
2021/04/08 00:44:16;;;;;;;1999.90;999.90;;;15.70;99.70;;;;;;5031395;28;20181;-44
2021/04/08 00:46:43;;;;;;;1999.90;999.90;;;15.60;99.90;;;;;;5031424;28;20174;-42
2021/04/08 00:49:09;;;;;;;1999.90;999.90;;;15.60;99.90;;;;;;5031285;28;20193;-45
2021/04/08 00:51:36;;;;;;;1999.90;999.90;;;15.50;99.90;;;;;;5031344;28;20193;-43
2021/04/08 00:54:03;;;;;;;1999.90;999.90;;;15.50;99.90;;;;;;5031302;28;20177;-43
2021/04/08 00:56:31;;;;;;;1999.90;999.90;;;15.50;99.90;;;;;;5031214;28;20170;-43
2021/04/08 00:58:58;;;;;;;1999.90;999.90;;;15.60;99.90;;;;;;5031294;28;20265;-43
2021/04/08 01:01:25;;;;;;;1999.90;999.90;;;15.60;99.90;;;;;;5031069;28;20184;-44
2021/04/08 01:03:52;;;;;;;1999.90;999.90;;;15.60;99.90;;;;;;5031119;28;20258;-43
2021/04/08 01:06:19;;;;;;;1999.90;999.90;;;15.60;99.90;;;;;;5031078;28;20170;-43
2021/04/08 01:08:45;;;;;;;1999.90;999.90;;;15.70;99.90;;;;;;5030949;28;20242;-44
2021/04/08 01:11:12;;;;;;;1999.90;999.90;;;15.70;99.90;;;;;;5031020;28;20170;-45
2021/04/08 01:13:41;;;;;;;1999.90;999.90;;;15.70;99.90;;;;;;5030974;28;20249;-43
2021/04/08 01:16:35;;;;;;;1999.90;999.90;;;15.80;99.90;;;;;;5030962;28;20539;-43
2021/04/08 01:19:07;;;;;;;1999.90;999.90;;;15.80;99.90;;;;;;5030750;28;20237;-43
2021/04/08 01:21:42;;;;;;;1999.90;999.90;;;15.90;99.90;;;;;;5031030;28;20155;-43
2021/04/08 01:24:38;;;;;;;1999.90;999.90;;;15.90;99.90;;;;;;5030876;28;20158;-43
2021/04/08 01:27:16;;;;;;;1999.90;999.90;;;15.90;99.90;;;;;;5030924;28;20184;-43
2021/04/08 01:30:17;;;;;;;1999.90;999.90;;;16.00;99.90;;;;;;5029893;28;20186;-44
2021/04/08 01:32:54;;;;;;;1999.90;999.90;;;16.00;99.80;;;;;;5030643;28;20170;-43
2021/04/08 01:35:28;;;;;;;1999.90;999.90;;;16.00;99.40;;;;;;5030722;28;20158;-43
2021/04/08 01:38:14;;;;;;;1999.90;999.90;;;15.90;99.10;;;;;;5030683;28;20157;-43
2021/04/08 01:40:41;;;;;;;1999.90;999.90;;;15.80;99.20;;;;;;5030693;28;20182;-43
2021/04/08 01:43:09;;;;;;;1999.90;999.90;;;15.80;99.20;;;;;;5030547;28;20243;-45
2021/04/08 01:45:36;;;;;;;1999.90;999.90;;;15.80;99.20;;;;;;5030537;28;20170;-43
2021/04/08 01:48:05;;;;;;;1999.90;999.90;;;15.70;99.20;;;;;;5030656;28;20169;-44
2021/04/08 01:50:33;;;;;;;1999.90;999.90;;;15.60;99.80;;;;;;5030523;28;20193;-44
2021/04/08 01:53:01;;;;;;;1999.90;999.90;;;15.60;99.80;;;;;;5030475;28;20550;-43
2021/04/08 01:55:29;;;;;;;1999.90;999.90;;;15.50;99.90;;;;;;5030375;28;20343;-43
2021/04/08 01:57:57;;;;;;;1999.90;999.90;;;15.60;99.90;;;;;;5030342;28;20529;-44
2021/04/08 02:00:24;;;;;;;1999.90;999.90;;;15.70;99.90;;;;;;5030278;28;20166;-43
2021/04/08 02:02:55;;;;;;;1999.90;999.90;;;15.60;99.90;;;;;;5030303;28;20166;-43
2021/04/08 02:05:25;;;;;;;1999.90;999.90;;;15.50;99.90;;;;;;5030267;28;20158;-43
2021/04/08 02:07:55;;;;;;;1999.90;999.90;;;15.60;99.90;;;;;;5030171;28;20226;-43
2021/04/08 02:10:22;;;;;;;1999.90;999.90;;;15.60;99.90;;;;;;5030095;28;20255;-47
2021/04/08 02:12:51;;;;;;;1999.90;999.90;;;15.60;99.90;;;;;;5030098;28;20216;-43
2021/04/08 02:15:20;;;;;;;1999.90;999.90;;;15.60;99.90;;;;;;5030135;28;20239;-43
2021/04/08 02:17:53;;;;;;;1999.90;999.90;;;15.50;99.90;;;;;;5029686;28;20204;-43
2021/04/08 02:20:23;;;;;;;1999.90;999.90;;;15.50;99.90;;;;;;5030092;28;20609;-44
2021/04/08 02:22:53;;;;;;;1999.90;999.90;;;15.60;99.90;;;;;;5028741;28;20182;-45
2021/04/08 02:25:22;;;;;;;1999.90;999.90;;;15.60;99.90;;;;;;5029994;28;20166;-43
2021/04/08 02:27:50;;;;;;;1999.90;999.90;;;15.60;99.90;;;;;;5029954;28;20174;-43
2021/04/08 02:30:19;;;;;;;1999.90;999.90;;;15.60;99.90;;;;;;5029841;28;20213;-43
2021/04/08 02:32:46;;;;;;;1999.90;999.90;;;15.50;99.90;;;;;;5029803;28;20174;-43
2021/04/08 02:35:18;;;;;;;1999.90;999.90;;;15.40;99.90;;;;;;5029828;28;20177;-43
2021/04/08 02:37:48;;;;;;;1999.90;999.90;;;15.40;99.90;;;;;;5029903;28;20162;-43
2021/04/08 02:40:20;;;;;;;1999.90;999.90;;;15.50;99.90;;;;;;5029821;28;20207;-44
2021/04/08 02:42:48;;;;;;;1999.90;999.90;;;15.60;99.90;;;;;;5032697;28;20154;-44
2021/04/08 02:45:15;;;;;;;1999.90;999.90;;;15.60;99.90;;;;;;5033266;28;20166;-44
2021/04/08 02:47:42;;;;;;;1999.90;999.90;;;15.60;99.90;;;;;;5033265;28;20199;-45
2021/04/08 02:50:10;;;;;;;1999.90;999.90;;;15.50;99.90;;;;;;5033246;28;20206;-44
2021/04/08 02:52:50;;;;;;;1999.90;999.90;;;15.60;99.90;;;;;;5033236;28;20178;-45
2021/04/08 02:55:23;;;;;;;1999.90;999.90;;;15.50;99.90;;;;;;5033239;28;20182;-44
2021/04/08 02:58:03;;;;;;;1999.90;999.90;;;15.50;99.90;;;;;;5033044;28;20238;-43
2021/04/08 03:00:42;;;;;;;1999.90;999.90;;;15.50;99.90;;;;;;5032954;28;20169;-44
2021/04/08 03:03:11;;;;;;;1999.90;999.90;;;15.50;99.90;;;;;;5033204;28;20160;-43
2021/04/08 03:05:42;;;;;;;1999.90;999.90;;;15.50;99.90;;;;;;5033029;28;20600;-45
2021/04/08 03:08:13;;;;;;;1999.90;999.90;;;15.40;99.90;;;;;;5033066;28;20182;-44
2021/04/08 03:10:41;;;;;;;1999.90;999.90;;;15.40;99.90;;;;;;5032857;28;20221;-45
2021/04/08 03:13:11;;;;;;;1999.90;999.90;;;15.40;99.90;;;;;;5032975;28;20170;-44
2021/04/08 03:15:39;;;;;;;1999.90;999.90;;;15.40;99.90;;;;;;5032945;28;20170;-43
2021/04/08 03:18:20;;;;;;;1999.90;999.90;;;15.30;99.90;;;;;;5032554;28;20262;-43
2021/04/08 03:20:53;;;;;;;1999.90;999.90;;;15.30;99.90;;;;;;5032785;28;20154;-43
2021/04/08 03:23:23;;;;;;;1999.90;999.90;;;15.30;99.90;;;;;;5032721;28;20174;-43
2021/04/08 03:25:52;;;;;;;1999.90;999.90;;;15.30;99.90;;;;;;5032703;28;20155;-43
2021/04/08 03:28:19;;;;;;;1999.90;999.90;;;15.30;99.90;;;;;;5032601;28;20173;-43
2021/04/08 03:30:47;;;;;;;1999.90;999.90;;;15.30;99.80;;;;;;5032558;28;20220;-44
2021/04/08 03:33:16;;;;;;;1999.90;999.90;;;15.30;99.80;;;;;;5032562;28;20166;-43
2021/04/08 03:35:47;;;;;;;1999.90;999.90;;;15.30;99.70;;;;;;5032450;28;20323;-43
2021/04/08 03:38:18;;;;;;;1999.90;999.90;;;15.30;99.80;;;;;;5032405;28;20162;-43
2021/04/08 03:40:46;;;;;;;1999.90;999.90;;;15.20;99.90;;;;;;5032412;28;20655;-43
2021/04/08 03:43:14;;;;;;;1999.90;999.90;;;15.20;99.90;;;;;;5032519;28;20204;-43
2021/04/08 03:45:42;;;;;;;1999.90;999.90;;;15.20;99.90;;;;;;5032496;28;20169;-43
2021/04/08 03:48:12;;;;;;;1999.90;999.90;;;15.30;99.90;;;;;;5032621;28;20170;-44
2021/04/08 03:50:43;;;;;;;1999.90;999.90;;;15.20;99.70;;;;;;5032346;28;20197;-43
2021/04/08 03:53:11;;;;;;;1999.90;999.90;;;15.10;99.60;;;;;;5031598;28;20203;-44
2021/04/08 03:55:40;;;;;;;1999.90;999.90;;;15.10;99.90;;;;;;5032233;28;20189;-44
2021/04/08 03:58:09;;;;;;;1999.90;999.90;;;15.00;99.90;;;;;;5032175;28;20720;-44
2021/04/08 04:00:37;;;;;;;1999.90;999.90;;;14.90;99.90;;;;;;5032137;28;20166;-44
2021/04/08 04:03:07;;;;;;;1999.90;999.90;;;14.90;99.90;;;;;;5032090;28;20205;-58
2021/04/08 04:05:35;;;;;;;1999.90;999.90;;;14.80;99.90;;;;;;5031885;28;20605;-44
2021/04/08 04:08:02;;;;;;;1999.90;999.90;;;14.80;99.90;;;;;;5031973;28;20166;-52
2021/04/08 04:10:29;;;;;;;1999.90;999.90;;;14.90;99.90;;;;;;5031802;28;20205;-46
2021/04/08 04:12:57;;;;;;;1999.90;999.90;;;14.90;99.90;;;;;;5031928;28;20173;-45
2021/04/08 04:15:25;;;;;;;1999.90;999.90;;;15.00;99.90;;;;;;5031862;28;20253;-47
2021/04/08 04:17:52;;;;;;;1999.90;999.90;;;15.00;99.90;;;;;;5031539;28;20210;-43
2021/04/08 04:20:20;;;;;;;1999.90;999.90;;;15.00;99.90;;;;;;5031837;28;20166;-45
2021/04/08 04:22:47;;;;;;;1999.90;999.90;;;15.00;99.90;;;;;;5031885;28;20687;-43
2021/04/08 04:25:14;;;;;;;1999.90;999.90;;;15.00;99.90;;;;;;5031719;28;20174;-46
2021/04/08 04:27:41;;;;;;;1999.90;999.90;;;15.00;99.90;;;;;;5030309;28;20189;-43
2021/04/08 04:30:10;;;;;;;1999.90;999.90;;;14.90;99.90;;;;;;5031451;28;20218;-44
2021/04/08 04:32:37;;;;;;;1999.90;999.90;;;14.90;99.90;;;;;;5031666;28;20626;-44
2021/04/08 04:35:04;;;;;;;1999.90;999.90;;;14.80;99.90;;;;;;5031360;28;20323;-43
2021/04/08 04:37:31;;;;;;;1999.90;999.90;;;14.80;99.90;;;;;;5031506;28;20525;-43
2021/04/08 04:39:58;;;;;;;1999.90;999.90;;;14.70;99.90;;;;;;5031436;28;20284;-43
2021/04/08 04:42:25;;;;;;;1999.90;999.90;;;14.70;99.90;;;;;;5031360;28;20177;-48
2021/04/08 04:44:52;;;;;;;1999.90;999.90;;;14.70;99.90;;;;;;5031412;28;20257;-44
2021/04/08 04:47:19;;;;;;;1999.90;999.90;;;14.60;99.90;;;;;;5031129;28;20261;-43
2021/04/08 04:49:49;;;;;;;1999.90;999.90;;;14.70;99.90;;;;;;5031286;28;20208;-45
2021/04/08 04:52:16;;;;;;;1999.90;999.90;;;14.60;99.90;;;;;;5031330;28;20205;-45
2021/04/08 04:54:44;;;;;;;1999.90;999.90;;;14.60;99.90;;;;;;5031255;28;20170;-45
2021/04/08 04:57:11;;;;;;;1999.90;999.90;;;14.60;99.90;;;;;;5031217;28;20170;-44
2021/04/08 04:59:38;;;;;;;1999.90;999.90;;;14.60;99.90;;;;;;5031100;28;20167;-52
2021/04/08 05:02:05;;;;;;;1999.90;999.90;;;14.60;99.90;;;;;;5031136;28;20177;-44
2021/04/08 05:04:32;;;;;;;1999.90;999.90;;;14.60;99.90;;;;;;5031031;28;20166;-43
2021/04/08 05:06:58;;;;;;;1999.90;999.90;;;14.50;99.90;;;;;;5031136;28;20181;-43
2021/04/08 05:09:25;;;;;;;1999.90;999.90;;;14.40;99.90;;;;;;5030953;28;20251;-43
2021/04/08 05:11:52;;;;;;;1999.90;999.90;;;14.20;99.90;;;;;;5030864;28;20174;-43
2021/04/08 05:14:19;;;;;;;1999.90;999.90;;;14.10;99.90;;;;;;5031069;28;20253;-43
2021/04/08 05:16:46;;;;;;;1999.90;999.90;;;14.10;99.90;;;;;;5031034;28;20170;-44
2021/04/08 05:19:13;;;;;;;1999.90;999.90;;;14.10;99.90;;;;;;5030624;28;20217;-43
2021/04/08 05:21:39;;;;;;;1999.90;999.90;;;14.10;99.90;;;;;;5030762;28;20178;-43
2021/04/08 05:24:07;;;;;;;1999.90;999.90;;;14.10;99.90;;;;;;5030638;28;20598;-43
2021/04/08 05:26:34;;;;;;;1999.90;999.90;;;14.20;99.90;;;;;;5030773;28;20582;-43
2021/04/08 05:29:00;;;;;;;1999.90;999.90;;;14.20;99.90;;;;;;5030275;28;20285;-43
2021/04/08 05:31:29;;;;;;;1999.90;999.90;;;14.30;99.90;;;;;;5030614;28;20169;-42
2021/04/08 05:33:56;;;;;;;1999.90;999.90;;;14.30;99.90;;;;;;5030690;28;20174;-42
2021/04/08 05:36:22;;;;;;;1999.90;999.90;;;14.40;99.90;;;;;;5030570;28;20167;-42
2021/04/08 05:38:49;;;;;;;1999.90;999.90;;;14.40;99.90;;;;;;5030354;28;20166;-44
2021/04/08 05:41:16;;;;;;;1999.90;999.90;;;14.50;99.90;;;;;;5030296;28;20241;-43
2021/04/08 05:43:43;;;;;;;1999.90;999.90;;;14.60;99.90;;;;;;5030231;28;20170;-42
2021/04/08 05:46:12;;;;;;;1999.90;999.90;;;14.70;99.90;;;;;;5030210;28;20170;-47
2021/04/08 05:48:39;;;;;;;1999.90;999.90;;;14.80;99.90;;;;;;5030103;28;20333;-47
2021/04/08 05:51:06;;;;;;;1999.90;999.90;;;14.90;99.90;;;;;;5029953;28;20209;-49
2021/04/08 05:53:33;;;;;;;1999.90;999.90;;;15.00;99.90;;;;;;5030052;28;20214;-51
2021/04/08 05:56:00;;;;;;;1999.90;999.90;;;15.00;99.90;;;;;;5030015;28;20293;-45
2021/04/08 05:58:27;;;;;;;1999.90;999.90;;;15.10;99.90;;;;;;5029892;28;20708;-46
2021/04/08 06:00:53;;;;;;;1999.90;999.90;;;15.20;99.90;;;;;;5030198;28;20295;-44
2021/04/08 06:03:20;;;;;;;1999.90;999.90;;;15.30;99.90;;;;;;5030139;28;20177;-44
2021/04/08 06:05:47;;;;;;;1999.90;999.90;;;15.30;99.90;;;;;;5029825;28;20166;-44
2021/04/08 06:08:14;;;;;;;1999.90;999.90;;;15.40;99.90;;;;;;5029672;28;20222;-48
2021/04/08 06:10:41;;;;;;;1999.90;999.90;;;15.50;99.40;;;;;;5029593;28;20683;-48
2021/04/08 06:13:08;;;;;;;1999.90;999.90;;;15.80;98.80;;;;;;5029947;28;20177;-46
2021/04/08 06:15:35;;;;;;;1999.90;999.90;;;16.10;98.80;;;;;;5029753;28;20170;-50
2021/04/08 06:18:01;;;;;;;1999.90;999.90;;;16.10;98.50;;;;;;5029048;28;20225;-55
2021/04/08 06:20:28;;;;;;;1999.90;999.90;;;16.20;98.90;;;;;;5029687;28;20170;-43
2021/04/08 06:22:56;;;;;;;1999.90;999.90;;;16.30;98.70;;;;;;5027053;28;20170;-47
2021/04/08 06:25:24;;;;;;;1999.90;999.90;;;16.30;98.50;;;;;;5029363;28;20174;-50
2021/04/08 06:27:51;;;;;;;1999.90;999.90;;;16.40;98.50;;;;;;5028932;28;20253;-55
2021/04/08 06:30:19;;;;;;;1999.90;999.90;;;16.60;98.00;;;;;;5029022;28;20198;-42
2021/04/08 06:32:45;;;;;;;1999.90;999.90;;;16.60;97.90;;;;;;5029414;28;20271;-47
2021/04/08 06:35:13;;;;;;;1999.90;999.90;;;16.70;98.00;;;;;;5029578;28;20172;-43
2021/04/08 06:37:39;;;;;;;1999.90;999.90;;;16.80;97.90;;;;;;5026873;28;20543;-43
2021/04/08 06:40:07;;;;;;;1999.90;999.90;;;16.80;97.80;;;;;;5029188;28;20503;-45
2021/04/08 06:42:35;;;;;;;1999.90;999.90;;;17.00;97.30;;;;;;5029056;28;20190;-44
2021/04/08 06:45:05;;;;;;;1999.90;999.90;;;17.10;96.80;;;;;;5027767;28;20173;-46
2021/04/08 06:47:47;;;;;;;1999.90;999.90;;;17.10;96.80;;;;;;5028151;28;20174;-47
2021/04/08 06:50:14;;;;;;;1999.90;999.90;;;17.20;96.80;;;;;;5027083;28;20257;-48
2021/04/08 06:52:42;;;;;;;1999.90;999.90;;;17.20;97.00;;;;;;5029085;28;20182;-46
2021/04/08 06:55:09;;;;;;;1999.90;999.90;;;17.40;96.50;;;;;;5028261;28;20208;-47
2021/04/08 06:57:41;;;;;;;1999.90;999.90;;;17.50;96.50;;;;;;5028924;28;20200;-47
2021/04/08 07:00:09;;;;;;;1999.90;999.90;;;17.60;96.10;;;;;;5028882;28;20177;-49
2021/04/08 07:02:37;;;;;;;1999.90;999.90;;;17.70;96.00;;;;;;5029079;28;20218;-50
2021/04/08 07:05:07;;;;;;;1999.90;999.90;;;17.80;96.20;;;;;;5028634;28;20170;-45
2021/04/08 07:07:34;;;;;;;1999.90;999.90;;;17.90;95.90;;;;;;5028206;28;20675;-45
2021/04/08 07:10:01;;;;;;;1999.90;999.90;;;18.00;95.80;;;;;;5028206;28;20642;-44
2021/04/08 07:12:28;;;;;;;1999.90;999.90;;;18.00;95.30;;;;;;5028295;28;20247;-49
2021/04/08 07:14:55;;;;;;;1999.90;999.90;;;18.10;95.50;;;;;;5028756;28;20530;-44
2021/04/08 07:17:22;;;;;;;1999.90;999.90;;;18.20;95.30;;;;;;5028125;28;20170;-45
2021/04/08 07:19:49;;;;;;;1999.90;999.90;;;18.30;95.20;;;;;;5027997;28;20305;-61
2021/04/08 07:22:18;;;;;;;1999.90;999.90;;;18.60;94.60;;;;;;5028372;28;20193;-52
2021/04/08 07:24:47;;;;;;;1999.90;999.90;;;18.80;93.80;;;;;;5028666;28;20178;-53
2021/04/08 07:27:17;;;;;;;1999.90;999.90;;;19.00;93.30;;;;;;5028048;28;20208;-49
2021/04/08 07:29:58;;;;;;;1999.90;999.90;;;19.20;93.10;;;;;;5030639;28;20244;-46
2021/04/08 07:32:35;;;;;;;1999.90;999.90;;;19.30;92.80;;;;;;5031938;28;20241;-46
2021/04/08 07:35:18;;;;;;;1999.90;999.90;;;19.50;92.20;;;;;;5031275;28;20525;-46
2021/04/08 07:37:58;;;;;;;1999.90;999.90;;;19.60;91.80;;;;;;5031463;28;20677;-51
2021/04/08 07:40:26;;;;;;;1999.90;999.90;;;19.80;91.10;;;;;;5031096;28;20162;-46
2021/04/08 07:42:55;;;;;;;1999.90;999.90;;;20.00;90.80;;;;;;5031431;28;20170;-47
2021/04/08 07:45:33;;;;;;;1999.90;999.90;;;20.20;90.60;;;;;;5031601;28;20234;-53
2021/04/08 07:48:02;;;;;;;1999.90;999.90;;;20.40;89.80;;;;;;5031592;28;20158;-45
2021/04/08 07:50:30;;;;;;;1999.90;999.90;;;20.60;88.80;;;;;;5031084;28;20202;-47
2021/04/08 07:52:58;;;;;;;1999.90;999.90;;;20.90;86.50;;;;;;5031596;28;20178;-44
2021/04/08 07:55:30;;;;;;;1999.90;999.90;;;21.10;85.50;;;;;;5030831;28;20666;-50
2021/04/08 07:57:57;;;;;;;1999.90;999.90;;;21.40;84.20;;;;;;5030838;28;20198;-45
2021/04/08 08:00:26;;;;;;;1999.90;999.90;;;21.60;83.10;;;;;;5030499;28;20668;-48
2021/04/08 08:02:54;;;;;;;1999.90;999.90;;;21.90;81.60;;;;;;5030704;28;20213;-44
2021/04/08 08:05:24;;;;;;;1999.90;999.90;;;22.40;79.20;;;;;;5030841;28;20268;-54
2021/04/08 08:07:52;;;;;;;1999.90;999.90;;;22.90;76.50;;;;;;5030837;28;20206;-44
2021/04/08 08:10:22;;;;;;;1999.90;999.90;;;23.40;75.00;;;;;;5030560;28;20266;-45
2021/04/08 08:12:49;;;;;;;1999.90;999.90;;;23.10;73.30;;;;;;5030949;28;20507;-42
2021/04/08 08:15:30;;;;;;;1999.90;999.90;;;23.00;73.20;;;;;;5030736;28;20568;-38
2021/04/08 08:17:57;;;;;;;1999.90;999.90;;;23.20;73.10;;;;;;5030084;28;20217;-42
2021/04/08 08:20:26;;;;;;;1999.90;999.90;;;23.60;72.20;;;;;;5029924;28;20207;-52
2021/04/08 08:22:53;;;;;;;1999.90;999.90;;;24.20;69.40;;;;;;5030189;28;20305;-44
2021/04/08 08:25:27;;;;;;;1999.90;999.90;;;24.90;67.30;;;;;;5030465;28;20218;-50
2021/04/08 08:27:56;;;;;;;1999.90;999.90;;;24.90;65.20;;;;;;5030255;28;20207;-44
2021/04/08 08:31:02;;;;;;;1999.90;999.90;;;25.20;63.00;;;;;;5030244;28;20205;-55
2021/04/08 08:33:27;;;;;;;1999.90;999.90;;;24.70;64.30;;;;;;5030145;28;20295;-44
2021/04/08 08:35:54;;;;;;;1999.90;999.90;;;25.30;63.30;;;;;;5030024;28;20535;-42
2021/04/08 08:38:21;;;;;;;1999.90;999.90;;;26.30;60.20;;;;;;5030272;28;20163;-40
2021/04/08 08:40:50;;;;;;;1999.90;999.90;;;27.00;58.20;;;;;;5030211;28;20167;-42
2021/04/08 08:43:17;;;;;;;1999.90;999.90;;;26.70;57.00;;;;;;5030014;28;20185;-47
2021/04/08 08:45:45;;;;;;;1999.90;999.90;;;25.50;59.20;;;;;;5030280;28;20170;-41
2021/04/08 08:48:19;;;;;;;1999.90;999.90;;;25.60;60.30;;;;;;5030341;28;20174;-47
2021/04/08 08:50:51;;;;;;;1999.90;999.90;;;26.30;58.90;;;;;;5030099;28;20239;-38
2021/04/08 08:53:19;;;;;;;1999.90;999.90;;;26.90;57.40;;;;;;5030634;28;20151;-37
2021/04/08 08:55:46;;;;;;;1999.90;999.90;;;27.80;54.40;;;;;;5030548;28;20162;-39
2021/04/08 08:58:13;;;;;;;1999.90;999.90;;;27.90;52.70;;;;;;5030333;28;20170;-45
2021/04/08 09:00:40;;;;;;;1999.90;999.90;;;28.10;52.10;;;;;;5030565;28;20269;-48
2021/04/08 09:03:07;;;;;;;1999.90;999.90;;;28.70;52.20;;;;;;5030563;28;20213;-54
2021/04/08 09:05:35;;;;;;;1999.90;999.90;;;29.20;50.40;;;;;;5030792;28;20636;-45
2021/04/08 09:08:10;;;;;;;1999.90;999.90;;;29.70;49.10;;;;;;5030386;28;20170;-49
2021/04/08 09:10:39;;;;;;;1999.90;999.90;;;29.90;48.10;;;;;;5030165;28;20197;-50
2021/04/08 09:13:06;;;;;;;1999.90;999.90;;;30.20;47.70;;;;;;5029919;28;20199;-46
2021/04/08 09:15:35;;;;;;;1999.90;999.90;;;30.30;46.80;;;;;;5030118;28;20207;-44
2021/04/08 09:18:07;;;;;;;1999.90;999.90;;;30.50;45.80;;;;;;5029975;28;20222;-47
2021/04/08 09:20:35;;;;;;;1999.90;999.90;;;30.90;45.20;;;;;;5030714;28;20158;-41
2021/04/08 09:23:08;;;;;;;1999.90;999.90;;;31.10;44.30;;;;;;5030092;28;20162;-45
2021/04/08 09:25:37;;;;;;;1999.90;999.90;;;31.10;44.10;;;;;;5030061;28;20282;-48
2021/04/08 09:28:09;;;;;;;1999.90;999.90;;;31.00;42.80;;;;;;5030277;28;20158;-46
2021/04/08 09:33:12;;;;;;;1999.90;999.90;;;30.70;45.10;;;;;;5029273;28;20170;-46
2021/04/08 09:35:40;;;;;;;1999.90;999.90;;;30.30;44.20;;;;;;5030051;28;20250;-52
2021/04/08 09:38:06;;;;;;;1999.90;999.90;;;30.50;44.60;;;;;;5030016;28;20197;-45
2021/04/08 09:40:44;;;;;;;1999.90;999.90;;;30.40;44.20;;;;;;5030122;28;20166;-56
2021/04/08 09:43:13;;;;;;;1999.90;999.90;;;30.40;43.90;;;;;;5030050;28;20161;-55
2021/04/08 09:45:49;;;;;;;1999.90;999.90;;;30.50;44.10;;;;;;5029915;28;20579;-56
2021/04/08 09:48:22;;;;;;;1999.90;999.90;;;30.70;43.80;;;;;;5029813;28;20164;-54
2021/04/08 09:50:59;;;;;;;1999.90;999.90;;;30.50;43.40;;;;;;5028872;28;20327;-52
2021/04/08 09:53:38;;;;;;;1999.90;999.90;;;30.30;43.60;;;;;;5029982;28;20639;-45
2021/04/08 09:56:07;;;;;;;1999.90;999.90;;;30.10;45.30;;;;;;5029977;28;20231;-42
2021/04/08 09:58:36;;;;;;;1999.90;999.90;;;30.00;45.40;;;;;;5029568;28;20158;-42
2021/04/08 10:01:10;;;;;;;1999.90;999.90;;;30.30;44.50;;;;;;5029814;28;20215;-47
2021/04/08 10:03:43;;;;;;;1999.90;999.90;;;30.60;44.80;;;;;;5029886;28;20185;-48
2021/04/08 10:06:20;;;;;;;1999.90;999.90;;;31.00;44.30;;;;;;5029750;28;20162;-44
2021/04/08 10:08:48;;;;;;;1999.90;999.90;;;31.00;42.80;;;;;;5029586;28;20169;-49
2021/04/08 10:11:24;;;;;;;1999.90;999.90;;;30.80;43.10;;;;;;5029286;28;20228;-50
2021/04/08 10:13:51;;;;;;;1999.90;999.90;;;30.80;42.80;;;;;;5029491;28;20146;-50
2021/04/08 10:16:18;;;;;;;1999.90;999.90;;;30.80;41.80;;;;;;5029691;28;20616;-48
2021/04/08 10:18:46;;;;;;;1999.90;999.90;;;30.70;41.30;;;;;;5029406;28;20210;-47
2021/04/08 10:21:15;;;;;;;1999.90;999.90;;;30.50;41.90;;;;;;5029545;28;20268;-47
2021/04/08 10:23:49;;;;;;;1999.90;999.90;;;30.50;41.90;;;;;;5029689;28;20182;-50
2021/04/08 10:26:18;;;;;;;1999.90;999.90;;;30.00;43.40;;;;;;5029399;28;20678;-50
2021/04/08 10:28:48;;;;;;;1999.90;999.90;;;30.40;44.40;;;;;;5029510;28;20169;-58
2021/04/08 10:31:22;;;;;;;1999.90;999.90;;;30.60;43.40;;;;;;5029145;28;20326;-48
2021/04/08 10:33:51;;;;;;;1999.90;999.90;;;31.00;43.40;;;;;;5029416;28;20162;-46
2021/04/08 10:36:30;;;;;;;1999.90;999.90;;;31.30;43.80;;;;;;5029509;28;20713;-51
2021/04/08 10:39:12;;;;;;;1999.90;999.90;;;31.30;43.50;;;;;;5029314;28;20687;-45
2021/04/08 10:41:41;;;;;;;1999.90;999.90;;;31.10;42.80;;;;;;5029686;28;20180;-48
2021/04/08 10:44:23;;;;;;;1999.90;999.90;;;31.10;43.70;;;;;;5029423;28;20170;-50
2021/04/08 10:46:52;;;;;;;1999.90;999.90;;;31.40;43.00;;;;;;5029070;28;20172;-57
2021/04/08 10:49:22;;;;;;;1999.90;999.90;;;31.60;42.30;;;;;;5029294;28;20289;-46
2021/04/08 10:51:49;;;;;;;1999.90;999.90;;;31.60;41.60;;;;;;5028964;28;20166;-49
2021/04/08 10:54:16;;;;;;;1999.90;999.90;;;31.40;41.70;;;;;;5028874;28;20166;-57
2021/04/08 10:56:48;;;;;;;1999.90;999.90;;;31.40;41.80;;;;;;5028994;28;20170;-43
2021/04/08 10:59:25;;;;;;;1999.90;999.90;;;31.30;41.60;;;;;;5028867;28;20245;-43
2021/04/08 11:01:53;;;;;;;1999.90;999.90;;;31.20;40.80;;;;;;5028834;28;20150;-44
2021/04/08 11:04:22;;;;;;;1999.90;999.90;;;31.20;39.60;;;;;;5031085;28;20173;-43
2021/04/08 11:06:53;;;;;;;1999.90;999.90;;;31.00;40.50;;;;;;5032057;28;20260;-43
2021/04/08 11:09:27;;;;;;;1999.90;999.90;;;30.30;40.80;;;;;;5032271;28;20189;-43
2021/04/08 11:11:57;;;;;;;1999.90;999.90;;;30.30;41.20;;;;;;5032443;28;20278;-45
2021/04/08 11:14:27;;;;;;;1999.90;999.90;;;30.40;42.20;;;;;;5032006;28;20173;-44
2021/04/08 11:16:57;;;;;;;1999.90;999.90;;;30.40;41.90;;;;;;5032027;28;20655;-50
2021/04/08 11:19:24;;;;;;;1999.90;999.90;;;30.80;41.60;;;;;;5031906;28;20354;-52
2021/04/08 11:21:52;;;;;;;1999.90;999.90;;;31.10;42.20;;;;;;5031794;28;20162;-48
2021/04/08 11:24:19;;;;;;;1999.90;999.90;;;31.10;41.80;;;;;;5032266;28;20178;-51
2021/04/08 11:26:51;;;;;;;1999.90;999.90;;;31.20;42.20;;;;;;5030809;28;20250;-44
2021/04/08 11:29:25;;;;;;;1999.90;999.90;;;31.30;42.00;;;;;;5030593;28;20288;-49
2021/04/08 11:32:11;;;;;;;1999.90;999.90;;;31.40;42.10;;;;;;5031955;28;20158;-42
2021/04/08 11:34:47;;;;;;;1999.90;999.90;;;31.30;42.40;;;;;;5032015;28;20581;-45
2021/04/08 11:37:32;;;;;;;1999.90;999.90;;;31.40;41.60;;;;;;5032206;28;20163;-47
2021/04/08 11:40:00;;;;;;;1999.90;999.90;;;31.40;41.30;;;;;;5031721;28;20243;-47
2021/04/08 11:42:33;;;;;;;1999.90;999.90;;;31.60;41.50;;;;;;5031608;28;20632;-41
2021/04/08 11:45:21;;;;;;;1999.90;999.90;;;31.60;41.50;;;;;;5031593;28;20166;-43
2021/04/08 11:48:05;;;;;;;1999.90;999.90;;;31.70;40.80;;;;;;5031369;28;20158;-37
2021/04/08 11:50:35;;;;;;;1999.90;999.90;;;31.50;41.20;;;;;;5031633;28;20254;-38
2021/04/08 11:53:04;;;;;;;1999.90;999.90;;;31.50;41.70;;;;;;5031745;28;20195;-36
2021/04/08 11:55:36;;;;;;;1999.90;999.90;;;31.40;41.90;;;;;;5031165;28;20166;-41
2021/04/08 11:58:03;;;;;;;1999.90;999.90;;;31.30;41.90;;;;;;5031317;28;20310;-38
2021/04/08 12:00:30;;;;;;;1999.90;999.90;;;31.20;41.70;;;;;;5031092;28;20169;-47
2021/04/08 12:02:57;;;;;;;1999.90;999.90;;;31.10;42.30;;;;;;5031121;28;20174;-44
2021/04/08 12:05:24;;;;;;;1999.90;999.90;;;31.20;42.30;;;;;;5031111;28;20165;-49
2021/04/08 12:07:51;;;;;;;1999.90;999.90;;;31.20;42.00;;;;;;5031037;28;20655;-51
2021/04/08 12:10:27;;;;;;;1999.90;999.90;;;31.10;42.30;;;;;;5031289;28;20531;-44
2021/04/08 12:12:58;;;;;;;1999.90;999.90;;;31.10;42.30;;;;;;5031370;28;20208;-44